createdAt,value
2017-01-21T00:00:27.224Z,-2.5
2017-01-21T00:01:30.166Z,-2.5
2017-01-21T00:02:33.113Z,-2.5
2017-01-21T00:03:36.627Z,-2.5
2017-01-21T00:04:39.576Z,-2.5
2017-01-21T00:05:42.530Z,-2.5
2017-01-21T00:06:45.477Z,-2.5
2017-01-21T00:08:51.836Z,-2.5
2017-01-21T00:09:55.287Z,-2.5
2017-01-21T00:10:58.236Z,-2.5
2017-01-21T00:12:01.179Z,-2.5
2017-01-21T00:13:04.123Z,-2.5
2017-01-21T00:14:07.570Z,-2.5
2017-01-21T00:15:10.579Z,-2.5
2017-01-21T00:16:13.532Z,-2.5
2017-01-21T00:17:16.982Z,-2.5
2017-01-21T00:18:19.927Z,-2.5
2017-01-21T00:19:22.876Z,-2.5
2017-01-21T00:20:25.822Z,-2.5
2017-01-21T00:21:29.272Z,-2.6
2017-01-21T00:22:32.216Z,-2.6
2017-01-21T00:23:35.168Z,-2.6
2017-01-21T00:24:38.615Z,-2.6
2017-01-21T00:25:41.561Z,-2.6
2017-01-21T00:26:44.509Z,-2.6
2017-01-21T00:27:47.959Z,-2.6
2017-01-21T00:28:50.910Z,-2.6
2017-01-21T00:29:53.853Z,-2.6
2017-01-21T00:30:57.304Z,-2.6
2017-01-21T00:32:00.251Z,-2.6
2017-01-21T00:33:03.196Z,-2.6
2017-01-21T00:34:06.645Z,-2.6
2017-01-21T00:35:09.594Z,-2.6
2017-01-21T00:36:12.539Z,-2.6
2017-01-21T00:37:15.486Z,-2.6
2017-01-21T00:39:21.843Z,-2.6
2017-01-21T00:40:24.796Z,-2.7
2017-01-21T00:41:28.252Z,-2.7
2017-01-21T00:42:31.204Z,-2.7
2017-01-21T00:43:34.153Z,-2.7
2017-01-21T00:44:37.606Z,-2.7
2017-01-21T00:45:40.550Z,-2.7
2017-01-21T00:46:43.496Z,-2.7
2017-01-21T00:47:46.952Z,-2.7
2017-01-21T00:48:49.895Z,-2.7
2017-01-21T00:49:52.850Z,-2.8
2017-01-21T00:50:55.795Z,-2.7
2017-01-21T00:51:59.245Z,-2.8
2017-01-21T00:53:02.195Z,-2.7
2017-01-21T00:54:05.140Z,-2.7
2017-01-21T00:55:08.590Z,-2.7
2017-01-21T00:56:11.537Z,-2.7
2017-01-21T00:57:14.483Z,-2.8
2017-01-21T00:58:17.933Z,-2.8
2017-01-21T00:59:20.880Z,-2.8
2017-01-21T01:00:23.838Z,-2.7
2017-01-21T01:01:26.848Z,-2.8
2017-01-21T01:02:30.299Z,-2.8
2017-01-21T01:03:33.239Z,-2.8
2017-01-21T01:04:36.186Z,-2.8
2017-01-21T01:05:39.659Z,-2.8
2017-01-21T01:06:42.607Z,-2.8
2017-01-21T01:07:45.558Z,-2.8
2017-01-21T01:08:48.506Z,-2.8
2017-01-21T01:09:51.954Z,-2.8
2017-01-21T01:10:55.070Z,-2.8
2017-01-21T01:11:58.017Z,-2.8
2017-01-21T01:13:00.964Z,-2.8
2017-01-21T01:14:04.415Z,-2.8
2017-01-21T01:15:07.365Z,-2.8
2017-01-21T01:16:10.314Z,-2.8
2017-01-21T01:17:13.263Z,-2.8
2017-01-21T01:18:16.710Z,-2.8
2017-01-21T01:19:19.653Z,-2.8
2017-01-21T01:20:22.601Z,-2.8
2017-01-21T01:21:26.054Z,-2.8
2017-01-21T01:22:29.000Z,-2.8
2017-01-21T01:23:31.947Z,-2.8
2017-01-21T01:24:35.396Z,-2.8
2017-01-21T01:25:38.349Z,-2.8
2017-01-21T01:26:41.294Z,-2.8
2017-01-21T01:27:44.312Z,-2.8
2017-01-21T01:28:47.771Z,-2.8
2017-01-21T01:29:50.721Z,-2.8
2017-01-21T01:30:53.668Z,-2.8
2017-01-21T01:31:57.126Z,-2.8
2017-01-21T01:33:00.138Z,-2.8
2017-01-21T01:34:03.089Z,-2.8
2017-01-21T01:35:06.053Z,-2.8
2017-01-21T01:36:09.497Z,-2.8
2017-01-21T01:37:12.444Z,-2.8
2017-01-21T01:38:15.408Z,-2.7
2017-01-21T01:39:18.350Z,-2.7
2017-01-21T01:40:21.803Z,-2.8
2017-01-21T01:41:24.880Z,-2.8
2017-01-21T01:42:27.825Z,-2.8
2017-01-21T01:43:30.773Z,-2.8
2017-01-21T01:44:34.227Z,-2.8
2017-01-21T01:45:37.268Z,-2.8
2017-01-21T01:46:40.214Z,-2.9
2017-01-21T01:47:43.168Z,-2.9
2017-01-21T01:48:46.628Z,-2.9
2017-01-21T01:49:49.574Z,-2.9
2017-01-21T01:50:52.583Z,-2.9
2017-01-21T01:51:55.524Z,-2.9
2017-01-21T01:52:58.972Z,-2.9
2017-01-21T01:54:01.921Z,-2.9
2017-01-21T01:55:04.871Z,-2.9
2017-01-21T01:56:08.322Z,-2.9
2017-01-21T01:57:11.268Z,-2.9
2017-01-21T01:58:14.214Z,-2.9
2017-01-21T01:59:17.663Z,-2.9
2017-01-21T02:00:20.613Z,-2.9
2017-01-21T02:01:23.563Z,-2.9
2017-01-21T02:02:26.509Z,-2.9
2017-01-21T02:03:29.958Z,-2.9
2017-01-21T02:04:32.903Z,-2.9
2017-01-21T02:05:35.849Z,-2.8
2017-01-21T02:06:39.302Z,-2.9
2017-01-21T02:07:42.245Z,-2.9
2017-01-21T02:08:45.188Z,-2.9
2017-01-21T02:09:48.644Z,-2.9
2017-01-21T02:10:51.658Z,-2.9
2017-01-21T02:11:54.602Z,-2.9
2017-01-21T02:12:57.545Z,-2.9
2017-01-21T02:14:00.997Z,-2.9
2017-01-21T02:15:03.944Z,-2.9
2017-01-21T02:16:06.891Z,-2.9
2017-01-21T02:17:10.340Z,-2.9
2017-01-21T02:18:13.288Z,-2.9
2017-01-21T02:19:16.233Z,-2.9
2017-01-21T02:20:19.183Z,-2.9
2017-01-21T02:21:22.635Z,-2.9
2017-01-21T02:22:25.584Z,-2.9
2017-01-21T02:23:28.556Z,-2.9
2017-01-21T02:24:32.004Z,-2.9
2017-01-21T02:25:34.951Z,-2.9
2017-01-21T02:26:37.905Z,-3
2017-01-21T02:27:40.853Z,-3
2017-01-21T02:28:44.299Z,-3
2017-01-21T02:29:47.245Z,-3
2017-01-21T02:30:50.193Z,-3
2017-01-21T02:31:53.649Z,-3
2017-01-21T02:32:56.593Z,-3
2017-01-21T02:33:59.543Z,-3
2017-01-21T02:35:02.992Z,-3
2017-01-21T02:36:05.943Z,-3
2017-01-21T02:37:08.890Z,-3
2017-01-21T02:38:11.839Z,-3
2017-01-21T02:39:15.294Z,-2.9
2017-01-21T02:40:18.250Z,-3
2017-01-21T02:41:21.203Z,-3
2017-01-21T02:42:24.653Z,-3
2017-01-21T02:43:27.597Z,-3
2017-01-21T02:44:30.548Z,-3
2017-01-21T02:45:33.494Z,-3
2017-01-21T02:46:36.943Z,-3
2017-01-21T02:47:39.893Z,-3
2017-01-21T02:48:42.839Z,-3
2017-01-21T02:49:46.291Z,-3
2017-01-21T02:50:49.240Z,-3
2017-01-21T02:51:52.188Z,-3
2017-01-21T02:52:55.642Z,-3
2017-01-21T02:53:58.587Z,-3.1
2017-01-21T02:55:01.707Z,-3.1
2017-01-21T02:56:04.816Z,-3.1
2017-01-21T02:57:07.765Z,-3
2017-01-21T02:58:10.717Z,-3
2017-01-21T02:59:14.229Z,-3
2017-01-21T03:00:17.186Z,-3
2017-01-21T03:01:20.136Z,-3.1
2017-01-21T03:02:23.082Z,-3.1
2017-01-21T03:03:26.527Z,-3.1
2017-01-21T03:04:29.467Z,-3.1
2017-01-21T03:05:32.414Z,-3.1
2017-01-21T03:06:35.867Z,-3.1
2017-01-21T03:07:38.815Z,-3.1
2017-01-21T03:08:41.761Z,-3.1
2017-01-21T03:09:45.212Z,-3.1
2017-01-21T03:10:48.165Z,-3.1
2017-01-21T03:11:51.109Z,-3.1
2017-01-21T03:12:54.060Z,-3.1
2017-01-21T03:13:57.509Z,-3.1
2017-01-21T03:15:00.461Z,-3.1
2017-01-21T03:16:03.408Z,-3.1
2017-01-21T03:17:06.861Z,-3.1
2017-01-21T03:19:12.775Z,-3.1
2017-01-21T03:20:15.721Z,-3.1
2017-01-21T03:21:19.170Z,-3.1
2017-01-21T03:22:22.117Z,-3.1
2017-01-21T03:23:25.063Z,-3.1
2017-01-21T03:24:28.517Z,-3.1
2017-01-21T03:25:31.464Z,-3.1
2017-01-21T03:26:34.412Z,-3.2
2017-01-21T03:27:37.355Z,-3.2
2017-01-21T03:28:40.810Z,-3.2
2017-01-21T03:29:43.762Z,-3.2
2017-01-21T03:30:46.710Z,-3.2
2017-01-21T03:31:50.167Z,-3.2
2017-01-21T03:32:53.115Z,-3.2
2017-01-21T03:33:56.059Z,-3.2
2017-01-21T03:34:59.006Z,-3.2
2017-01-21T03:36:02.456Z,-3.2
2017-01-21T03:37:05.404Z,-3.3
2017-01-21T03:38:08.353Z,-3.3
2017-01-21T03:39:11.801Z,-3.3
2017-01-21T03:40:14.750Z,-3.3
2017-01-21T03:41:17.696Z,-3.3
2017-01-21T03:42:20.651Z,-3.3
2017-01-21T03:43:24.169Z,-3.2
2017-01-21T03:44:27.124Z,-3.3
2017-01-21T03:45:30.347Z,-3.3
2017-01-21T03:46:33.306Z,-3.3
2017-01-21T03:47:36.256Z,-3.4
2017-01-21T03:48:39.204Z,-3.4
2017-01-21T03:49:42.659Z,-3.4
2017-01-21T03:50:45.605Z,-3.4
2017-01-21T03:51:48.550Z,-3.4
2017-01-21T03:52:52.001Z,-3.3
2017-01-21T03:53:54.949Z,-3.4
2017-01-21T03:54:57.894Z,-3.4
2017-01-21T03:56:00.847Z,-3.4
2017-01-21T03:57:04.296Z,-3.4
2017-01-21T03:58:07.248Z,-3.4
2017-01-21T03:59:10.195Z,-3.4
2017-01-21T04:00:13.644Z,-3.4
2017-01-21T04:01:16.586Z,-3.4
2017-01-21T04:02:19.531Z,-3.4
2017-01-21T04:03:22.980Z,-3.4
2017-01-21T04:04:25.947Z,-3.5
2017-01-21T04:05:28.893Z,-3.5
2017-01-21T04:06:31.846Z,-3.5
2017-01-21T04:07:35.302Z,-3.4
2017-01-21T04:08:38.284Z,-3.4
2017-01-21T04:09:41.229Z,-3.4
2017-01-21T04:10:44.174Z,-3.4
2017-01-21T04:11:47.619Z,-3.5
2017-01-21T04:12:50.571Z,-3.5
2017-01-21T04:13:53.518Z,-3.5
2017-01-21T04:14:56.971Z,-3.5
2017-01-21T04:15:59.918Z,-3.5
2017-01-21T04:17:02.867Z,-3.5
2017-01-21T04:18:05.818Z,-3.5
2017-01-21T04:19:09.274Z,-3.5
2017-01-21T04:20:12.222Z,-3.5
2017-01-21T04:21:15.167Z,-3.5
2017-01-21T04:24:24.437Z,-3.5
2017-01-21T04:25:27.383Z,-3.5
2017-01-21T04:26:30.831Z,-3.5
2017-01-21T04:27:33.780Z,-3.5
2017-01-21T04:28:36.732Z,-3.5
2017-01-21T04:31:45.997Z,-3.5
2017-01-21T04:32:49.447Z,-3.5
2017-01-21T04:33:52.397Z,-3.5
2017-01-21T04:34:55.407Z,-3.5
2017-01-21T04:35:58.363Z,-3.5
2017-01-21T04:37:01.310Z,-3.5
2017-01-21T04:38:04.763Z,-3.5
2017-01-21T04:39:07.713Z,-3.5
2017-01-21T04:40:10.662Z,-3.6
2017-01-21T04:41:14.113Z,-3.6
2017-01-21T04:42:17.127Z,-3.6
2017-01-21T04:43:20.076Z,-3.6
2017-01-21T04:44:23.023Z,-3.6
2017-01-21T04:45:26.472Z,-3.6
2017-01-21T04:46:29.426Z,-3.6
2017-01-21T04:47:32.373Z,-3.6
2017-01-21T04:48:35.323Z,-3.6
2017-01-21T04:49:38.770Z,-3.6
2017-01-21T04:50:41.723Z,-3.6
2017-01-21T04:51:44.674Z,-3.6
2017-01-21T04:52:48.120Z,-3.6
2017-01-21T04:53:51.076Z,-3.6
2017-01-21T04:54:54.026Z,-3.6
2017-01-21T04:55:56.976Z,-3.6
2017-01-21T04:57:00.428Z,-3.6
2017-01-21T04:58:03.372Z,-3.6
2017-01-21T04:59:06.345Z,-3.6
2017-01-21T05:00:09.301Z,-3.6
2017-01-21T05:01:12.751Z,-3.6
2017-01-21T05:02:15.699Z,-3.6
2017-01-21T05:03:18.646Z,-3.6
2017-01-21T05:04:21.599Z,-3.6
2017-01-21T05:05:25.043Z,-3.7
2017-01-21T05:06:27.992Z,-3.7
2017-01-21T05:07:30.947Z,-3.6
2017-01-21T05:08:34.059Z,-3.6
2017-01-21T05:09:37.008Z,-3.6
2017-01-21T05:10:40.459Z,-3.6
2017-01-21T05:11:43.405Z,-3.6
2017-01-21T05:12:46.348Z,-3.6
2017-01-21T05:13:49.802Z,-3.6
2017-01-21T05:14:52.747Z,-3.6
2017-01-21T05:15:55.759Z,-3.6
2017-01-21T05:16:58.714Z,-3.7
2017-01-21T05:18:02.166Z,-3.6
2017-01-21T05:19:05.113Z,-3.7
2017-01-21T05:20:08.061Z,-3.7
2017-01-21T05:21:11.013Z,-3.7
2017-01-21T05:23:17.369Z,-3.7
2017-01-21T05:24:20.316Z,-3.8
2017-01-21T05:25:23.765Z,-3.8
2017-01-21T05:26:26.714Z,-3.8
2017-01-21T05:27:29.659Z,-3.8
2017-01-21T05:28:32.604Z,-3.8
2017-01-21T05:29:36.058Z,-3.8
2017-01-21T05:30:39.003Z,-3.7
2017-01-21T05:31:41.951Z,-3.7
2017-01-21T05:32:44.896Z,-3.7
2017-01-21T05:33:48.348Z,-3.8
2017-01-21T05:34:51.298Z,-3.8
2017-01-21T05:35:54.241Z,-3.8
2017-01-21T05:36:57.689Z,-3.8
2017-01-21T05:38:00.645Z,-3.8
2017-01-21T05:39:03.588Z,-3.8
2017-01-21T05:40:06.531Z,-3.8
2017-01-21T05:41:09.983Z,-3.8
2017-01-21T05:42:12.929Z,-3.8
2017-01-21T05:43:15.873Z,-3.8
2017-01-21T05:44:18.822Z,-3.8
2017-01-21T05:45:22.269Z,-3.8
2017-01-21T05:46:25.215Z,-3.8
2017-01-21T05:47:28.165Z,-3.9
2017-01-21T05:49:34.523Z,-3.8
2017-01-21T05:50:37.474Z,-3.8
2017-01-21T05:51:40.418Z,-3.8
2017-01-21T05:52:43.869Z,-3.8
2017-01-21T05:53:46.818Z,-3.8
2017-01-21T05:54:49.764Z,-3.8
2017-01-21T05:55:52.711Z,-3.8
2017-01-21T05:56:56.165Z,-3.8
2017-01-21T05:57:59.112Z,-3.8
2017-01-21T05:59:02.059Z,-3.8
2017-01-21T06:00:05.511Z,-3.8
2017-01-21T06:01:08.455Z,-3.8
2017-01-21T06:02:11.403Z,-3.8
2017-01-21T06:03:14.345Z,-3.8
2017-01-21T06:04:17.799Z,-3.8
2017-01-21T06:05:20.742Z,-3.8
2017-01-21T06:06:23.684Z,-3.9
2017-01-21T06:07:26.632Z,-3.9
2017-01-21T06:08:30.083Z,-3.9
2017-01-21T06:09:33.027Z,-3.9
2017-01-21T06:10:36.041Z,-3.9
2017-01-21T06:11:38.985Z,-3.9
2017-01-21T06:12:42.430Z,-3.9
2017-01-21T06:13:45.372Z,-3.9
2017-01-21T06:14:48.321Z,-3.9
2017-01-21T06:15:51.298Z,-3.9
2017-01-21T06:16:54.759Z,-3.9
2017-01-21T06:17:57.705Z,-3.9
2017-01-21T06:19:00.651Z,-3.9
2017-01-21T06:20:03.602Z,-3.9
2017-01-21T06:21:07.056Z,-3.9
2017-01-21T06:22:10.002Z,-4
2017-01-21T06:23:12.957Z,-4
2017-01-21T06:24:15.900Z,-4
2017-01-21T06:25:19.354Z,-4
2017-01-21T06:26:22.397Z,-4
2017-01-21T06:27:25.343Z,-4
2017-01-21T06:28:28.289Z,-4
2017-01-21T06:29:31.746Z,-4
2017-01-21T06:30:34.695Z,-4
2017-01-21T06:31:37.637Z,-4
2017-01-21T06:32:40.580Z,-4
2017-01-21T06:33:44.035Z,-4
2017-01-21T06:34:46.983Z,-4
2017-01-21T06:35:49.929Z,-4
2017-01-21T06:36:52.882Z,-4
2017-01-21T06:37:56.337Z,-4
2017-01-21T06:38:59.289Z,-4
2017-01-21T06:40:02.236Z,-4
2017-01-21T06:41:05.753Z,-4
2017-01-21T06:42:08.696Z,-4
2017-01-21T06:44:14.611Z,-4
2017-01-21T06:45:17.559Z,-4.1
2017-01-21T06:46:21.009Z,-4.1
2017-01-21T06:47:23.960Z,-4.1
2017-01-21T06:48:26.914Z,-4.1
2017-01-21T06:49:29.930Z,-4.1
2017-01-21T06:50:33.378Z,-4.1
2017-01-21T06:51:36.326Z,-4.1
2017-01-21T06:52:39.273Z,-4.1
2017-01-21T06:53:42.216Z,-4.1
2017-01-21T06:54:45.668Z,-4.1
2017-01-21T06:55:48.616Z,-4.1
2017-01-21T06:56:51.569Z,-4.1
2017-01-21T06:57:54.519Z,-4.1
2017-01-21T06:58:57.968Z,-4.1
2017-01-21T07:01:03.824Z,-4.1
2017-01-21T07:02:07.277Z,-4.1
2017-01-21T07:03:10.224Z,-4.1
2017-01-21T07:04:13.168Z,-4.1
2017-01-21T07:05:16.180Z,-4.1
2017-01-21T07:06:19.128Z,-4.1
2017-01-21T07:07:22.577Z,-4.1
2017-01-21T07:08:25.520Z,-4.1
2017-01-21T07:09:28.466Z,-4.2
2017-01-21T07:10:31.416Z,-4.2
2017-01-21T07:11:34.862Z,-4.2
2017-01-21T07:12:37.810Z,-4.2
2017-01-21T07:13:40.760Z,-4.2
2017-01-21T07:14:43.710Z,-4.2
2017-01-21T07:15:47.226Z,-4.2
2017-01-21T07:16:50.174Z,-4.2
2017-01-21T07:17:53.119Z,-4.2
2017-01-21T07:18:56.066Z,-4.2
2017-01-21T07:19:59.521Z,-4.2
2017-01-21T07:21:02.481Z,-4.2
2017-01-21T07:22:05.432Z,-4.2
2017-01-21T07:23:08.380Z,-4.3
2017-01-21T07:24:11.834Z,-4.3
2017-01-21T07:26:17.756Z,-4.3
2017-01-21T07:27:20.704Z,-4.2
2017-01-21T07:28:24.156Z,-4.2
2017-01-21T07:29:27.107Z,-4.2
2017-01-21T07:30:30.057Z,-4.2
2017-01-21T07:31:33.011Z,-4.2
2017-01-21T07:32:36.462Z,-4.2
2017-01-21T07:33:39.412Z,-4.2
2017-01-21T07:34:42.366Z,-4.2
2017-01-21T07:35:45.313Z,-4.2
2017-01-21T07:36:48.761Z,-4.2
2017-01-21T07:37:51.708Z,-4.2
2017-01-21T07:38:54.653Z,-4.2
2017-01-21T07:39:57.609Z,-4.2
2017-01-21T07:41:01.058Z,-4.1
2017-01-21T07:42:04.005Z,-4.1
2017-01-21T07:43:06.948Z,-4.1
2017-01-21T07:44:09.896Z,-4.1
2017-01-21T07:45:13.346Z,-4.1
2017-01-21T07:46:16.294Z,-4.1
2017-01-21T07:47:19.238Z,-4.1
2017-01-21T07:48:22.178Z,-4.1
2017-01-21T07:49:25.634Z,-4
2017-01-21T07:50:28.749Z,-4.1
2017-01-21T07:51:33.407Z,-4.1
2017-01-21T07:52:34.845Z,-4.1
2017-01-21T07:53:37.789Z,-4.1
2017-01-21T07:54:40.741Z,-4.1
2017-01-21T07:55:44.205Z,-4.1
2017-01-21T07:56:47.153Z,-4
2017-01-21T07:57:50.127Z,-4
2017-01-21T07:59:56.488Z,-4
2017-01-21T08:00:59.430Z,-4
2017-01-21T08:02:02.382Z,-4
2017-01-21T08:03:05.330Z,-4.1
2017-01-21T08:04:08.780Z,-4
2017-01-21T08:05:11.727Z,-4
2017-01-21T08:06:14.672Z,-4
2017-01-21T08:07:17.618Z,-3.9
2017-01-21T08:08:21.067Z,-3.9
2017-01-21T08:09:24.013Z,-3.8
2017-01-21T08:10:27.031Z,-3.8
2017-01-21T08:11:29.978Z,-3.8
2017-01-21T08:12:33.430Z,-3.8
2017-01-21T08:13:36.446Z,-3.8
2017-01-21T08:14:39.392Z,-3.8
2017-01-21T08:15:42.342Z,-3.8
2017-01-21T08:16:45.805Z,-3.8
2017-01-21T08:17:48.784Z,-3.8
2017-01-21T08:18:51.734Z,-3.8
2017-01-21T08:19:54.681Z,-3.7
2017-01-21T08:20:58.126Z,-3.7
2017-01-21T08:22:01.072Z,-3.7
2017-01-21T08:23:04.021Z,-3.7
2017-01-21T08:24:06.973Z,-3.7
2017-01-21T08:25:10.426Z,-3.7
2017-01-21T08:26:13.373Z,-3.7
2017-01-21T08:27:16.316Z,-3.7
2017-01-21T08:28:19.763Z,-3.7
2017-01-21T08:29:22.709Z,-3.7
2017-01-21T08:30:25.653Z,-3.7
2017-01-21T08:31:28.599Z,-3.7
2017-01-21T08:32:32.050Z,-3.7
2017-01-21T08:33:35.003Z,-3.7
2017-01-21T08:34:37.952Z,-3.7
2017-01-21T08:35:41.409Z,-3.7
2017-01-21T08:36:44.355Z,-3.7
2017-01-21T08:37:47.304Z,-3.8
2017-01-21T08:38:50.249Z,-3.8
2017-01-21T08:39:53.702Z,-3.8
2017-01-21T08:40:56.649Z,-3.8
2017-01-21T08:41:59.600Z,-3.8
2017-01-21T08:43:03.055Z,-3.8
2017-01-21T08:44:06.002Z,-3.8
2017-01-21T08:45:08.944Z,-3.8
2017-01-21T08:46:11.892Z,-3.8
2017-01-21T08:47:15.348Z,-3.8
2017-01-21T08:48:18.292Z,-3.8
2017-01-21T08:49:21.241Z,-3.8
2017-01-21T08:50:24.757Z,-3.8
2017-01-21T08:51:27.707Z,-3.9
2017-01-21T08:52:30.656Z,-3.9
2017-01-21T08:53:33.605Z,-3.9
2017-01-21T08:54:37.057Z,-3.9
2017-01-21T08:55:40.003Z,-3.9
2017-01-21T08:56:42.948Z,-3.9
2017-01-21T08:57:46.399Z,-3.9
2017-01-21T08:58:49.343Z,-3.9
2017-01-21T08:59:52.288Z,-3.9
2017-01-21T09:00:55.227Z,-3.9
2017-01-21T09:01:58.675Z,-3.9
2017-01-21T09:03:01.624Z,-3.9
2017-01-21T09:04:04.737Z,-3.9
2017-01-21T09:05:07.683Z,-3.9
2017-01-21T09:06:11.135Z,-3.9
2017-01-21T09:07:14.088Z,-3.9
2017-01-21T09:08:17.050Z,-3.9
2017-01-21T09:09:19.998Z,-3.9
2017-01-21T09:10:23.451Z,-3.9
2017-01-21T09:11:26.400Z,-3.9
2017-01-21T09:12:29.344Z,-3.9
2017-01-21T09:13:32.794Z,-3.9
2017-01-21T09:14:35.738Z,-3.9
2017-01-21T09:15:38.684Z,-3.9
2017-01-21T09:16:41.627Z,-3.9
2017-01-21T09:17:44.733Z,-3.9
2017-01-21T09:18:48.184Z,-3.9
2017-01-21T09:19:51.156Z,-3.9
2017-01-21T09:20:54.104Z,-3.9
2017-01-21T09:21:57.559Z,-3.9
2017-01-21T09:23:00.508Z,-3.9
2017-01-21T09:24:03.453Z,-3.9
2017-01-21T09:25:06.399Z,-3.9
2017-01-21T09:26:09.853Z,-3.9
2017-01-21T09:27:12.798Z,-3.9
2017-01-21T09:29:19.160Z,-3.9
2017-01-21T09:30:22.109Z,-3.9
2017-01-21T09:31:25.221Z,-3.8
2017-01-21T09:32:28.170Z,-3.8
2017-01-21T09:33:31.622Z,-3.8
2017-01-21T09:34:34.566Z,-3.8
2017-01-21T09:35:37.515Z,-3.8
2017-01-21T09:36:40.530Z,-3.8
2017-01-21T09:37:43.987Z,-3.8
2017-01-21T09:38:46.938Z,-3.8
2017-01-21T09:39:49.885Z,-3.8
2017-01-21T09:40:52.897Z,-3.8
2017-01-21T09:41:56.372Z,-3.8
2017-01-21T09:44:02.225Z,-3.8
2017-01-21T09:45:05.683Z,-3.8
2017-01-21T09:46:08.630Z,-3.8
2017-01-21T09:47:11.577Z,-3.8
2017-01-21T09:48:14.522Z,-3.8
2017-01-21T09:49:17.977Z,-3.8
2017-01-21T09:50:20.923Z,-3.8
2017-01-21T09:51:23.873Z,-3.8
2017-01-21T09:52:27.330Z,-3.8
2017-01-21T09:53:30.308Z,-3.8
2017-01-21T09:54:33.255Z,-3.8
2017-01-21T09:55:36.707Z,-3.8
2017-01-21T09:56:39.649Z,-3.8
2017-01-21T09:57:42.596Z,-3.8
2017-01-21T09:58:45.538Z,-3.8
2017-01-21T10:00:51.903Z,-3.8
2017-01-21T10:01:54.855Z,-3.8
2017-01-21T10:02:58.333Z,-3.7
2017-01-21T10:04:01.278Z,-3.7
2017-01-21T10:05:04.229Z,-3.7
2017-01-21T10:06:07.691Z,-3.7
2017-01-21T10:07:10.641Z,-3.7
2017-01-21T10:08:13.589Z,-3.7
2017-01-21T10:09:16.536Z,-3.7
2017-01-21T10:10:19.989Z,-3.7
2017-01-21T10:11:22.939Z,-3.7
2017-01-21T10:13:29.303Z,-3.7
2017-01-21T10:14:32.250Z,-3.7
2017-01-21T10:15:35.198Z,-3.7
2017-01-21T10:16:38.652Z,-3.6
2017-01-21T10:17:41.767Z,-3.6
2017-01-21T10:18:44.713Z,-3.6
2017-01-21T10:19:47.726Z,-3.6
2017-01-21T10:20:50.678Z,-3.6
2017-01-21T10:21:54.129Z,-3.7
2017-01-21T10:22:57.071Z,-3.6
2017-01-21T10:24:00.017Z,-3.6
2017-01-21T10:25:03.469Z,-3.6
2017-01-21T10:26:06.414Z,-3.6
2017-01-21T10:27:09.360Z,-3.6
2017-01-21T10:28:12.813Z,-3.6
2017-01-21T10:30:18.667Z,-3.6
2017-01-21T10:31:22.119Z,-3.6
2017-01-21T10:32:25.066Z,-3.6
2017-01-21T10:33:28.012Z,-3.6
2017-01-21T10:34:31.461Z,-3.6
2017-01-21T10:35:34.408Z,-3.6
2017-01-21T10:36:37.356Z,-3.6
2017-01-21T10:37:40.810Z,-3.5
2017-01-21T10:38:43.760Z,-3.5
2017-01-21T10:39:46.711Z,-3.5
2017-01-21T10:40:50.164Z,-3.5
2017-01-21T10:41:53.116Z,-3.5
2017-01-21T10:42:56.068Z,-3.5
2017-01-21T10:43:59.517Z,-3.5
2017-01-21T10:45:02.462Z,-3.5
2017-01-21T10:46:05.407Z,-3.5
2017-01-21T10:47:08.857Z,-3.5
2017-01-21T10:48:11.815Z,-3.5
2017-01-21T10:49:14.828Z,-3.5
2017-01-21T10:50:17.774Z,-3.5
2017-01-21T10:51:21.220Z,-3.5
2017-01-21T10:52:24.196Z,-3.5
2017-01-21T10:53:27.148Z,-3.5
2017-01-21T10:54:30.217Z,-3.5
2017-01-21T10:55:33.665Z,-3.5
2017-01-21T10:56:36.610Z,-3.5
2017-01-21T10:57:39.567Z,-3.5
2017-01-21T10:58:43.184Z,-3.5
2017-01-21T11:00:49.058Z,-3.4
2017-01-21T11:01:52.009Z,-3.4
2017-01-21T11:02:55.465Z,-3.4
2017-01-21T11:03:58.417Z,-3.4
2017-01-21T11:05:01.367Z,-3.4
2017-01-21T11:06:04.820Z,-3.3
2017-01-21T11:07:07.787Z,-3.4
2017-01-21T11:08:10.738Z,-3.4
2017-01-21T11:09:14.186Z,-3.4
2017-01-21T11:10:17.133Z,-3.4
2017-01-21T11:11:20.079Z,-3.4
2017-01-21T11:12:23.560Z,-3.4
2017-01-21T11:13:26.505Z,-3.4
2017-01-21T11:14:29.456Z,-3.4
2017-01-21T11:15:32.905Z,-3.4
2017-01-21T11:16:35.856Z,-3.4
2017-01-21T11:17:38.804Z,-3.4
2017-01-21T11:18:42.263Z,-3.3
2017-01-21T11:19:45.216Z,-3.3
2017-01-21T11:20:48.488Z,-3.3
2017-01-21T11:21:51.441Z,-3.3
2017-01-21T11:22:54.389Z,-3.3
2017-01-21T11:23:57.845Z,-3.3
2017-01-21T11:25:00.795Z,-3.2
2017-01-21T11:26:03.740Z,-3.2
2017-01-21T11:28:10.095Z,-3.3
2017-01-21T11:29:13.131Z,-3.3
2017-01-21T11:31:19.493Z,-3.3
2017-01-21T11:32:22.438Z,-3.3
2017-01-21T11:33:25.889Z,-3.3
2017-01-21T11:34:28.841Z,-3.3
2017-01-21T11:35:31.788Z,-3.2
2017-01-21T11:36:35.239Z,-3.1
2017-01-21T11:37:38.260Z,-3.1
2017-01-21T11:38:41.206Z,-3.1
2017-01-21T11:39:44.661Z,-3.1
2017-01-21T11:40:47.604Z,-3.1
2017-01-21T11:41:50.551Z,-3.1
2017-01-21T11:42:54.012Z,-3.1
2017-01-21T11:43:56.964Z,-3.1
2017-01-21T11:44:59.917Z,-3.1
2017-01-21T11:46:03.435Z,-3.1
2017-01-21T11:47:06.383Z,-3.1
2017-01-21T11:48:09.327Z,-3
2017-01-21T11:49:12.279Z,-3
2017-01-21T11:50:15.730Z,-3
2017-01-21T11:51:18.677Z,-3
2017-01-21T11:52:22.130Z,-3
2017-01-21T11:53:25.073Z,-3
2017-01-21T11:54:28.022Z,-3
2017-01-21T11:55:31.540Z,-3.1
2017-01-21T11:56:34.487Z,-3
2017-01-21T11:57:37.432Z,-3
2017-01-21T11:58:40.883Z,-3
2017-01-21T11:59:43.828Z,-3
2017-01-21T12:00:46.772Z,-3
2017-01-21T12:01:50.225Z,-3
2017-01-21T12:02:53.175Z,-3
2017-01-21T12:03:56.120Z,-3
2017-01-21T12:04:59.738Z,-3
2017-01-21T12:06:02.688Z,-3
2017-01-21T12:07:05.640Z,-3
2017-01-21T12:08:08.595Z,-3
2017-01-21T12:09:12.048Z,-3
2017-01-21T12:10:14.995Z,-3
2017-01-21T12:11:17.945Z,-3
2017-01-21T12:12:21.395Z,-3
2017-01-21T12:13:24.341Z,-3
2017-01-21T12:14:27.287Z,-3
2017-01-21T12:15:30.737Z,-2.9
2017-01-21T12:16:33.683Z,-2.9
2017-01-21T12:17:37.135Z,-2.9
2017-01-21T12:18:40.106Z,-2.8
2017-01-21T12:19:43.055Z,-2.8
2017-01-21T12:20:46.507Z,-2.9
2017-01-21T12:21:49.454Z,-2.9
2017-01-21T12:22:52.401Z,-2.8
2017-01-21T12:23:55.858Z,-2.9
2017-01-21T12:24:58.811Z,-2.8
2017-01-21T12:26:01.761Z,-2.8
2017-01-21T12:27:05.217Z,-2.8
2017-01-21T12:28:08.178Z,-2.8
2017-01-21T12:29:11.128Z,-2.8
2017-01-21T12:30:14.580Z,-2.8
2017-01-21T12:31:17.697Z,-2.8
2017-01-21T12:32:20.645Z,-2.8
2017-01-21T12:33:23.658Z,-2.8
2017-01-21T12:34:27.109Z,-2.8
2017-01-21T12:35:30.058Z,-2.8
2017-01-21T12:36:33.006Z,-2.8
2017-01-21T12:37:36.451Z,-2.8
2017-01-21T12:38:39.411Z,-2.8
2017-01-21T12:39:42.358Z,-2.8
2017-01-21T12:40:45.808Z,-2.7
2017-01-21T12:41:48.762Z,-2.6
2017-01-21T12:42:52.214Z,-2.6
2017-01-21T12:43:55.160Z,-2.6
2017-01-21T12:44:58.108Z,-2.6
2017-01-21T12:46:01.561Z,-2.6
2017-01-21T12:47:04.676Z,-2.6
2017-01-21T12:50:13.944Z,-2.6
2017-01-21T12:51:16.890Z,-2.6
2017-01-21T12:52:20.340Z,-2.6
2017-01-21T12:53:23.293Z,-2.6
2017-01-21T12:54:26.240Z,-2.6
2017-01-21T12:55:29.699Z,-2.6
2017-01-21T12:56:32.650Z,-2.5
2017-01-21T12:57:35.598Z,-2.5
2017-01-21T12:58:39.045Z,-2.5
2017-01-21T12:59:41.991Z,-2.5
2017-01-21T13:00:45.446Z,-2.5
2017-01-21T13:01:48.392Z,-2.5
2017-01-21T13:02:51.346Z,-2.5
2017-01-21T13:03:54.824Z,-2.5
2017-01-21T13:04:57.777Z,-2.5
2017-01-21T13:06:00.723Z,-2.5
2017-01-21T13:08:07.079Z,-2.5
2017-01-21T13:09:10.533Z,-2.4
2017-01-21T13:10:13.478Z,-2.4
2017-01-21T13:11:16.426Z,-2.4
2017-01-21T13:12:19.872Z,-2.4
2017-01-21T13:13:22.820Z,-2.3
2017-01-21T13:14:25.762Z,-2.4
2017-01-21T13:15:29.216Z,-2.4
2017-01-21T13:16:32.171Z,-2.3
2017-01-21T13:17:35.124Z,-2.4
2017-01-21T13:18:38.576Z,-2.4
2017-01-21T13:19:41.527Z,-2.4
2017-01-21T13:20:44.978Z,-2.4
2017-01-21T13:21:47.925Z,-2.3
2017-01-21T13:22:50.882Z,-2.3
2017-01-21T13:23:54.343Z,-2.3
2017-01-21T13:24:57.360Z,-2.3
2017-01-21T13:26:00.311Z,-2.3
2017-01-21T13:27:03.763Z,-2.3
2017-01-21T13:28:06.709Z,-2.3
2017-01-21T13:29:09.658Z,-2.3
2017-01-21T13:30:13.110Z,-2.3
2017-01-21T13:31:16.060Z,-2.3
2017-01-21T13:32:19.005Z,-2.3
2017-01-21T13:33:22.456Z,-2.3
2017-01-21T13:34:25.403Z,-2.3
2017-01-21T13:35:28.919Z,-2.2
2017-01-21T13:36:31.867Z,-2.2
2017-01-21T13:37:34.835Z,-2.2
2017-01-21T13:38:37.784Z,-2.2
2017-01-21T13:39:41.232Z,-2.2
2017-01-21T13:40:44.188Z,-2.1
2017-01-21T13:41:47.642Z,-2.1
2017-01-21T13:42:50.946Z,-2.2
2017-01-21T13:43:53.899Z,-2.2
2017-01-21T13:44:56.845Z,-2.2
2017-01-21T13:45:59.793Z,-2.2
2017-01-21T13:48:06.149Z,-2.2
2017-01-21T13:49:09.623Z,-2.2
2017-01-21T13:50:12.571Z,-2.2
2017-01-21T13:51:15.519Z,-2.1
2017-01-21T13:52:18.969Z,-2.1
2017-01-21T13:53:21.918Z,-2.1
2017-01-21T13:54:24.866Z,-2.1
2017-01-21T13:55:28.321Z,-2.1
2017-01-21T13:56:31.270Z,-2.1
2017-01-21T13:57:34.215Z,-2.1
2017-01-21T13:58:37.666Z,-2.1
2017-01-21T13:59:40.609Z,-2.1
2017-01-21T14:00:44.059Z,-2.1
2017-01-21T14:01:47.010Z,-2.1
2017-01-21T14:02:49.973Z,-2.1
2017-01-21T14:03:53.431Z,-2.1
2017-01-21T14:04:56.382Z,-2.1
2017-01-21T14:05:59.330Z,-2
2017-01-21T14:07:02.808Z,-2.1
2017-01-21T14:08:05.767Z,-2.1
2017-01-21T14:09:08.728Z,-2.1
2017-01-21T14:10:12.181Z,-2.1
2017-01-21T14:11:15.125Z,-2.1
2017-01-21T14:12:18.583Z,-2.1
2017-01-21T14:13:21.531Z,-2.1
2017-01-21T14:14:24.476Z,-2.1
2017-01-21T14:16:30.849Z,-2.1
2017-01-21T14:17:34.299Z,-2
2017-01-21T14:18:37.244Z,-2.1
2017-01-21T14:19:40.189Z,-2.1
2017-01-21T14:20:43.642Z,-2
2017-01-21T14:21:46.603Z,-2
2017-01-21T14:22:49.556Z,-2
2017-01-21T14:23:53.016Z,-2
2017-01-21T14:24:55.966Z,-2
2017-01-21T14:25:58.920Z,-2
2017-01-21T14:27:02.439Z,-2.1
2017-01-21T14:28:05.452Z,-2
2017-01-21T14:29:08.400Z,-2
2017-01-21T14:30:11.851Z,-2
2017-01-21T14:31:14.797Z,-2
2017-01-21T14:32:17.755Z,-2
2017-01-21T14:33:21.298Z,-2
2017-01-21T14:34:24.246Z,-2